Latest Weather Observations for Flinders Reef

IDQ60801

Issued at 10:02 pm EST Tuesday 4 August 2020 (issued every 10 minutes, with the page automatically refreshed every 10 minutes)

About weather observations | Map of weather stations | Latest weather observations for QLD | Other Formats
Station Details ID: 200783 Name: FLINDERS REEF Lat: -17.72 Lon: 148.45 Height: 2.6 m
Data from the previous 72 hours. | See also: Recent months at Flinders Reef
Date/Time
EST
Temp
°C
App
Temp
°C
Dew
Point
°C
Rel
Hum
%
Delta-T
°C
Wind Press
QNH
hPa
Press
MSL
hPa
Rain since
9am
mm
Dir  Spd
km/h
Gust
km/h
Spd
kts
Gust
kts
04/10:00pm 23.6 - - - - ESE 20 24 11 13 1014.6 1014.6 -
04/09:30pm 23.6 - - - - ESE 22 26 12 14 1014.5 1014.5 -
04/09:00pm 23.8 - - - - ESE 26 32 14 17 1014.2 1014.2 -
04/08:30pm 23.7 - - - - E 30 33 16 18 1013.7 1013.7 -
04/08:00pm 23.6 - - - - ESE 30 33 16 18 1013.4 1013.4 -
04/07:30pm 23.7 - - - - ESE 30 33 16 18 1013.2 1013.1 -
04/07:00pm 23.6 - - - - ESE 26 32 14 17 1013.1 1013.0 -
04/06:30pm 23.4 - - - - SE 26 30 14 16 1012.9 1012.8 -
04/06:00pm 23.4 - - - - SSE 28 32 15 17 1012.4 1012.3 -
04/05:30pm 23.5 - - - - SE 28 33 15 18 1012.1 1012.0 -
04/05:00pm 23.0 - - - - SE 30 35 16 19 1012.0 1011.9 -
04/04:30pm 22.7 - - - - SE 32 35 17 19 1011.9 1011.8 -
04/04:00pm 23.1 - - - - SE 30 33 16 18 1011.8 1011.7 -
04/03:30pm 23.0 - - - - SE 30 33 16 18 1011.8 1011.7 -
04/03:00pm 22.8 - - - - SE 30 35 16 19 1011.9 1011.8 -
04/02:30pm 23.1 - - - - SE 28 32 15 17 1012.1 1012.0 -
04/02:00pm 23.1 - - - - SE 26 30 14 16 1012.4 1012.3 -
04/01:30pm 23.2 - - - - SE 24 28 13 15 1012.9 1012.8 -
04/01:00pm 23.0 - - - - SE 22 26 12 14 1013.3 1013.2 -
04/12:30pm 22.8 - - - - SE 20 26 11 14 1013.8 1013.8 -
04/12:00pm 22.8 - - - - SE 20 24 11 13 1014.3 1014.3 -
04/11:30am 22.5 - - - - ESE 22 28 12 15 1014.7 1014.7 -
04/11:00am 22.8 - - - - ESE 24 30 13 16 1014.9 1014.9 -
04/10:30am 22.6 - - - - SE 30 32 16 17 1015.2 1015.2 -
04/10:00am 22.7 - - - - ESE 24 30 13 16 1015.4 1015.4 -
04/09:30am 22.9 - - - - SE 24 28 13 15 1015.6 1015.6 -
04/09:00am 22.9 - - - - SE 24 28 13 15 1015.5 1015.5 -
04/08:30am 22.7 - - - - SE 24 30 13 16 1015.4 1015.4 -
04/08:00am 22.7 - - - - SE 24 26 13 14 1015.2 1015.2 -
04/07:30am 20.9 - - - - ESE 20 35 11 19 1015.1 1015.1 -
04/07:00am 22.3 - - - - SSE 19 28 10 15 1014.6 1014.6 -
04/06:30am 22.4 - - - - SE 22 32 12 17 1014.3 1014.3 -
04/06:00am 22.3 - - - - SE 22 24 12 13 1014.1 1014.1 -
04/05:30am 22.4 - - - - SE 22 26 12 14 1013.8 1013.8 -
04/05:00am 22.2 - - - - SE 24 28 13 15 1013.5 1013.5 -
04/04:30am 22.2 - - - - ESE 26 33 14 18 1013.3 1013.2 -
04/04:00am 22.1 - - - - SE 26 30 14 16 1013.2 1013.1 -
04/03:30am 22.7 - - - - ESE 28 30 15 16 1013.2 1013.1 -
04/03:00am 22.3 - - - - ESE 22 26 12 14 1013.5 1013.5 -
04/02:30am 22.0 - - - - ESE 28 32 15 17 1013.6 1013.6 -
04/02:00am 22.1 - - - - ESE 30 35 16 19 1013.8 1013.8 -
04/01:30am 22.4 - - - - ESE 30 33 16 18 1014.0 1014.0 -
04/01:00am 22.3 - - - - SE 28 33 15 18 1014.2 1014.2 -
04/12:30am 22.2 - - - - SE 30 33 16 18 1014.2 1014.2 -
04/12:00am 22.2 - - - - SE 32 35 17 19 1014.6 1014.6 -
 
Date/Time
EST
Temp
°C
App
Temp
°C
Dew
Point
°C
Rel
Hum
%
Delta-T
°C
Wind Press
QNH
hPa
Press
MSL
hPa
Rain since
9am
mm
Dir  Spd
km/h
Gust
km/h
Spd
kts
Gust
kts
03/11:30pm 22.4 - - - - SE 30 33 16 18 1014.7 1014.7 -
03/11:00pm 22.6 - - - - SE 26 32 14 17 1014.9 1014.9 -
03/10:30pm 22.7 - - - - ESE 24 28 13 15 1015.0 1015.0 -
03/10:00pm 22.5 - - - - SSE 24 28 13 15 1015.0 1015.0 -
03/09:30pm 22.4 - - - - SSE 30 35 16 19 1015.0 1015.0 -
03/09:00pm 22.4 - - - - SE 24 30 13 16 1015.2 1015.2 -
03/08:30pm 22.1 - - - - SSE 32 35 17 19 1015.1 1015.1 -
03/08:00pm 22.0 - - - - SSE 32 35 17 19 1015.0 1015.0 -
03/07:30pm 22.1 - - - - SSE 33 39 18 21 1014.8 1014.8 -
03/07:00pm 22.2 - - - - SE 32 35 17 19 1014.3 1014.3 -
03/06:30pm 22.2 - - - - SE 32 37 17 20 1013.9 1013.9 -
03/06:00pm 22.4 - - - - SSE 33 39 18 21 1013.6 1013.6 -
03/05:30pm 22.5 - - - - SSE 32 35 17 19 1013.5 1013.5 -
03/05:00pm 22.7 - - - - SSE 32 35 17 19 1013.5 1013.5 -
03/04:30pm 23.1 - - - - SSE 24 28 13 15 1013.5 1013.5 -
03/04:00pm 23.3 - - - - SE 26 32 14 17 1013.6 1013.6 -
03/03:30pm 23.5 - - - - SE 26 32 14 17 1013.6 1013.6 -
03/03:00pm 23.2 - - - - SE 26 32 14 17 1013.7 1013.7 -
03/02:30pm 23.5 - - - - SE 24 28 13 15 1013.8 1013.8 -
03/02:00pm 23.3 - - - - SE 26 30 14 16 1014.1 1014.1 -
03/01:30pm 23.5 - - - - ESE 24 30 13 16 1014.3 1014.3 -
03/01:00pm 23.7 - - - - ESE 24 28 13 15 1014.7 1014.7 -
03/12:30pm 23.5 - - - - ESE 26 30 14 16 1015.0 1015.0 -
03/12:00pm 23.4 - - - - ESE 26 32 14 17 1015.2 1015.2 -
03/11:30am 23.4 - - - - ESE 26 32 14 17 1015.5 1015.5 -
03/11:00am 23.6 - - - - ESE 28 30 15 16 1015.9 1015.9 -
03/10:30am 23.4 - - - - ESE 30 35 16 19 1016.1 1016.1 -
03/10:00am 23.6 - - - - ESE 32 35 17 19 1016.1 1016.1 -
03/09:30am 23.3 - - - - ESE 33 39 18 21 1016.2 1016.2 -
03/09:00am 23.4 - - - - ESE 33 37 18 20 1016.1 1016.1 -
03/08:30am 23.7 - - - - ESE 28 35 15 19 1016.0 1016.0 -
03/08:00am 23.6 - - - - ESE 32 35 17 19 1015.8 1015.8 -
03/07:30am 23.6 - - - - E 30 35 16 19 1015.4 1015.4 -
03/07:00am 23.4 - - - - E 33 39 18 21 1015.0 1015.0 -
03/06:30am 22.9 - - - - E 35 39 19 21 1014.6 1014.6 -
03/06:00am 23.0 - - - - E 39 43 21 23 1014.3 1014.3 -
03/05:30am 23.3 - - - - ESE 37 43 20 23 1014.1 1014.1 -
03/05:00am 23.2 - - - - ESE 37 43 20 23 1013.7 1013.7 -
03/04:30am 23.2 - - - - ESE 41 46 22 25 1013.7 1013.7 -
03/04:00am 23.4 - - - - E 37 43 20 23 1013.9 1013.9 -
03/03:30am 23.5 - - - - E 39 46 21 25 1013.9 1013.9 -
03/03:00am 23.6 - - - - ESE 43 48 23 26 1014.3 1014.3 -
03/02:30am 23.7 - - - - ESE 41 46 22 25 1014.7 1014.7 -
03/02:00am 23.8 - - - - E 37 44 20 24 1015.0 1015.0 -
03/01:30am 23.6 - - - - E 39 46 21 25 1015.4 1015.4 -
03/01:00am 23.4 - - - - E 43 50 23 27 1015.5 1015.5 -
03/12:39am 22.3 - - - - E 46 61 25 33 1015.7 - -
03/12:30am 22.4 - - - - SE 46 59 25 32 1015.6 1015.6 -
03/12:25am 22.3 - - - - ESE 43 52 23 28 1015.7 1015.7 -
03/12:24am 22.7 - - - - SE 43 52 23 28 1016.0 - -
03/12:00am 23.3 - - - - E 39 46 21 25 1015.8 1015.8 -
 
Date/Time
EST
Temp
°C
App
Temp
°C
Dew
Point
°C
Rel
Hum
%
Delta-T
°C
Wind Press
QNH
hPa
Press
MSL
hPa
Rain since
9am
mm
Dir  Spd
km/h
Gust
km/h
Spd
kts
Gust
kts
02/11:30pm 23.5 - - - - E 37 46 20 25 1016.0 1016.0 -
02/11:00pm 23.5 - - - - E 37 43 20 23 1016.2 1016.2 -
02/10:30pm 22.9 - - - - E 28 37 15 20 1016.2 1016.2 -
02/10:00pm 22.4 - - - - ESE 26 33 14 18 1016.4 1016.4 -
02/09:30pm 22.8 - - - - ESE 30 37 16 20 1016.4 1016.4 -
02/09:16pm 22.8 - - - - ESE 35 41 19 22 1016.5 1016.5 -
02/09:15pm 22.5 - - - - ESE 37 41 20 22 1016.6 - -
02/09:00pm 22.9 - - - - E 28 35 15 19 1016.5 1016.5 -
02/08:30pm 23.2 - - - - E 35 44 19 24 1016.3 1016.3 -
02/08:21pm 23.3 - - - - E 37 43 20 23 1016.5 - -
02/08:00pm 21.7 - - - - SE 30 35 16 19 1016.3 1016.3 -
02/07:53pm 22.0 - - - - ESE 33 39 18 21 1016.6 - -
02/07:36pm 22.0 - - - - E 43 46 23 25 1016.3 - -
02/07:30pm 22.5 - - - - ESE 33 41 18 22 1016.1 1016.1 -
02/07:00pm 23.1 - - - - ESE 32 37 17 20 1016.0 1016.0 -
02/06:30pm 22.9 - - - - E 33 43 18 23 1015.7 1015.7 -
02/06:00pm 23.4 - - - - ESE 37 43 20 23 1015.6 1015.6 -
02/05:30pm 23.4 - - - - ESE 37 43 20 23 1015.6 1015.6 -
02/05:00pm 23.5 - - - - ESE 35 41 19 22 1015.6 1015.6 -
02/04:30pm 23.4 - - - - ESE 35 41 19 22 1015.4 1015.4 -
02/04:00pm 23.5 - - - - ESE 35 43 19 23 1015.2 1015.2 -
02/03:30pm 23.6 - - - - ESE 37 44 20 24 1015.0 1015.0 -
02/03:00pm 23.5 - - - - ESE 37 46 20 25 1014.9 1014.9 -
02/02:30pm 23.9 - - - - ESE 39 44 21 24 1015.2 1015.2 -
02/02:00pm 23.8 - - - - ESE 35 41 19 22 1015.5 1015.5 -
02/01:30pm 23.9 - - - - ESE 35 44 19 24 1015.8 1015.8 -
02/01:00pm 23.9 - - - - ESE 35 41 19 22 1016.1 1016.1 -
02/12:30pm 24.0 - - - - E 37 43 20 23 1016.6 1016.6 -
02/12:00pm 24.3 - - - - E 35 41 19 22 1017.0 1017.0 -
02/11:30am 24.4 - - - - E 37 44 20 24 1017.4 1017.4 -
02/11:00am 24.2 - - - - E 37 43 20 23 1017.8 1017.8 -
02/10:30am 24.1 - - - - E 39 44 21 24 1018.0 1018.0 -
02/10:00am 24.0 - - - - E 41 50 22 27 1018.1 1018.1 -
02/09:41am 24.0 - - - - E 37 43 20 23 1018.1 1018.1 -
02/09:30am 22.3 - - - - ESE 28 37 15 20 1018.3 1018.3 -
02/09:00am 23.4 - - - - E 33 41 18 22 1018.1 1018.1 -
02/08:30am 23.2 - - - - E 30 43 16 23 1017.6 1017.6 -
02/08:00am 20.9 - - - - E 30 35 16 19 1017.5 1017.5 -
02/07:30am 22.4 - - - - ESE 24 32 13 17 1017.4 1017.4 -
02/07:00am 21.8 - - - - ESE 24 28 13 15 1017.1 1017.1 -
02/06:30am 21.3 - - - - ESE 32 48 17 26 1017.1 1017.1 -
02/06:27am 21.5 - - - - ESE 28 48 15 26 1017.0 1017.0 -
02/06:00am 22.8 - - - - ESE 26 33 14 18 1016.8 1016.8 -
02/05:30am 21.7 - - - - ESE 20 26 11 14 1016.7 1016.7 -
02/05:00am 20.5 - - - - E 20 26 11 14 1016.7 1016.7 -
02/04:30am 20.6 - - - - E 26 39 14 21 1016.7 1016.7 -
02/04:27am 20.2 - - - - E 32 50 17 27 1016.7 1016.7 -
02/04:19am 21.3 - - - - ESE 32 50 17 27 1016.5 1016.5 -
02/04:00am 22.4 - - - - SE 32 37 17 20 1016.4 1016.4 -
02/03:30am 22.4 - - - - ESE 35 41 19 22 1016.5 1016.5 -
02/03:00am 22.5 - - - - ESE 39 44 21 24 1016.6 1016.6 -
02/02:57am 22.6 - - - - ESE 37 44 20 24 1016.6 1016.6 -
02/02:36am 21.7 - - - - ESE 41 48 22 26 1016.7 1016.7 -
02/02:30am 22.9 - - - - ESE 39 48 21 26 1016.6 1016.6 -
02/02:00am 22.8 - - - - ESE 37 44 20 24 1016.6 1016.6 -
02/01:30am 23.3 - - - - ESE 37 48 20 26 1016.9 1016.9 -
02/01:00am 22.9 - - - - ESE 37 44 20 24 1017.1 1017.1 -
02/12:30am 23.5 - - - - ESE 44 52 24 28 1017.3 1017.3 -
02/12:00am 23.6 - - - - ESE 41 52 22 28 1017.6 1017.6 -
 
Date/Time
EST
Temp
°C
App
Temp
°C
Dew
Point
°C
Rel
Hum
%
Delta-T
°C
Wind Press
QNH
hPa
Press
MSL
hPa
Rain since
9am
mm
Dir  Spd
km/h
Gust
km/h
Spd
kts
Gust
kts
01/11:30pm 23.2 - - - - E 41 48 22 26 1017.6 1017.6 -
01/11:00pm 21.5 - - - - ESE 32 37 17 20 1018.0 1018.0 -
01/10:30pm 22.9 - - - - E 37 50 20 27 1017.8 1017.8 -

Other formats

Comma delimited format used in spreadsheet applications
http://www.bom.gov.au/fwo/IDQ60801/IDQ60801.94290.axf

JavaScript Object Notation format (JSON) in row-major order
http://www.bom.gov.au/fwo/IDQ60801/IDQ60801.94290.json

Data quality

Most of these data are generated automatically and are frequently updated. Quality checks on data are not normally performed. It is possible for incorrect values to appear. Refer to information at About Latest Weather Observations and please check the disclaimer before using these data.